Time,TemperatureF,DewpointF,PressureIn,WindDirection,WindDirectionDegrees,WindSpeedMPH,WindSpeedGustMPH,Humidity,HourlyPrecipIn,Conditions,Clouds,dailyrainin,SolarRadiationWatts/m^2,SoftwareType,DateUTC
2014-02-10 00:01:00,23.3,19.7,29.92,SSW,198,0.1,1.1,86,0.00,CLR,,0.00,0.0,WeatherDisplay:10.37,2014-02-10 05:01:00,
2014-02-10 00:02:00,23.2,19.6,29.92,SSW,199,0.1,1.1,86,0.00,CLR,,0.00,0.0,WeatherDisplay:10.37,2014-02-10 05:02:00,
2014-02-10 00:07:00,23.2,19.6,29.92,South,188,0.0,0.0,86,0.00,CLR,,0.00,0.0,WeatherDisplay:10.37,2014-02-10 05:07:00,
2014-02-10 00:12:00,23.1,19.5,29.92,SSW,202,0.5,1.1,86,0.00,CLR,,0.00,0.0,WeatherDisplay:10.37,2014-02-10 05:12:00,
2014-02-10 00:17:00,23.1,19.5,29.91,South,175,0.8,3.5,86,0.00,CLR,,0.00,0.0,WeatherDisplay:10.37,2014-02-10 05:17:00,
2014-02-10 00:22:00,23.0,19.4,29.91,South,175,0.0,0.0,86,0.00,CLR,,0.00,0.0,WeatherDisplay:10.37,2014-02-10 05:22:00,
2014-02-10 00:27:00,23.0,19.4,29.91,WSW,238,0.1,1.1,86,0.00,CLR,,0.00,0.0,WeatherDisplay:10.37,2014-02-10 05:27:00,
2014-02-10 00:32:00,22.9,19.3,29.91,SW,235,0.0,0.0,86,0.00,CLR,,0.00,0.0,WeatherDisplay:10.37,2014-02-10 05:32:00,
2014-02-10 00:37:00,22.8,19.2,29.90,SW,235,0.0,0.0,86,0.00,CLR,,0.00,0.0,WeatherDisplay:10.37,2014-02-10 05:37:00,
2014-02-10 00:42:00,22.7,19.1,29.90,SW,232,0.0,2.3,86,0.00,CLR,,0.00,0.0,WeatherDisplay:10.37,2014-02-10 05:42:00,
2014-02-10 00:47:00,22.6,19.0,29.90,SW,232,0.0,0.0,86,0.00,CLR,,0.00,0.0,WeatherDisplay:10.37,2014-02-10 05:47:00,
2014-02-10 00:52:00,22.5,18.9,29.90,SW,232,0.0,0.0,86,0.00,CLR,,0.00,0.0,WeatherDisplay:10.37,2014-02-10 05:52:00,
2014-02-10 00:57:00,22.4,18.8,29.90,SW,232,0.0,0.0,86,0.00,CLR,,0.00,0.0,WeatherDisplay:10.37,2014-02-10 05:57:00,
2014-02-10 01:02:00,22.3,18.7,29.90,SW,231,0.0,0.0,86,0.00,CLR,,0.00,0.0,WeatherDisplay:10.37,2014-02-10 06:02:00,
2014-02-10 01:07:00,22.1,18.6,29.89,SW,231,0.0,0.0,86,0.00,CLR,,0.00,0.0,WeatherDisplay:10.37,2014-02-10 06:07:00,
2014-02-10 01:12:00,22.0,18.2,29.89,SW,231,0.0,0.0,85,0.00,CLR,,0.00,0.0,WeatherDisplay:10.37,2014-02-10 06:12:00,
2014-02-10 01:17:00,21.8,18.0,29.89,SW,232,0.0,0.0,85,0.00,CLR,,0.00,0.0,WeatherDisplay:10.37,2014-02-10 06:17:00,
2014-02-10 01:22:00,21.6,17.8,29.89,SW,232,0.0,0.0,85,0.00,CLR,,0.00,0.0,WeatherDisplay:10.37,2014-02-10 06:22:00,
2014-02-10 01:27:00,21.4,17.6,29.89,SW,221,0.0,0.0,85,0.00,CLR,,0.00,0.0,WeatherDisplay:10.37,2014-02-10 06:27:00,
2014-02-10 01:32:00,21.2,17.4,29.89,SW,221,0.0,0.0,85,0.00,CLR,,0.00,0.0,WeatherDisplay:10.37,2014-02-10 06:32:00,
2014-02-10 01:37:00,20.9,16.8,29.89,SW,221,0.0,0.0,84,0.00,CLR,,0.00,0.0,WeatherDisplay:10.37,2014-02-10 06:37:00,
2014-02-10 01:42:00,20.6,16.5,29.89,SW,221,0.0,0.0,84,0.00,CLR,,0.00,0.0,WeatherDisplay:10.37,2014-02-10 06:42:00,
2014-02-10 01:47:00,20.3,16.2,29.89,SW,221,0.0,0.0,84,0.00,CLR,,0.00,0.0,WeatherDisplay:10.37,2014-02-10 06:47:00,
2014-02-10 01:52:00,20.0,15.9,29.88,SW,221,0.0,0.0,84,0.00,CLR,,0.00,0.0,WeatherDisplay:10.37,2014-02-10 06:52:00,
2014-02-10 01:57:00,19.7,15.6,29.89,SW,221,0.0,0.0,84,0.00,CLR,,0.00,0.0,WeatherDisplay:10.37,2014-02-10 06:57:00,
2014-02-10 02:02:00,19.3,15.3,29.88,SW,221,0.0,0.0,84,0.00,CLR,,0.00,0.0,WeatherDisplay:10.37,2014-02-10 07:02:00,
2014-02-10 02:07:00,19.0,15.0,29.88,SW,221,0.0,0.0,84,0.00,CLR,,0.00,0.0,WeatherDisplay:10.37,2014-02-10 07:07:00,
2014-02-10 02:12:00,18.6,14.6,29.88,SW,221,0.0,0.0,84,0.00,CLR,,0.00,0.0,WeatherDisplay:10.37,2014-02-10 07:12:00,
2014-02-10 02:17:00,18.3,14.3,29.88,SW,221,0.0,0.0,84,0.00,CLR,,0.00,0.0,WeatherDisplay:10.37,2014-02-10 07:17:00,
2014-02-10 02:22:00,17.9,13.9,29.88,SW,221,0.0,0.0,84,0.00,CLR,,0.00,0.0,WeatherDisplay:10.37,2014-02-10 07:22:00,
2014-02-10 02:27:00,17.6,13.6,29.88,SW,221,0.0,0.0,84,0.00,CLR,,0.00,0.0,WeatherDisplay:10.37,2014-02-10 07:27:00,
2014-02-10 02:32:00,17.3,13.6,29.89,SW,221,0.0,0.0,85,0.00,CLR,,0.00,0.0,WeatherDisplay:10.37,2014-02-10 07:32:00,
2014-02-10 02:37:00,17.0,13.3,29.88,SW,221,0.0,0.0,85,0.00,CLR,,0.00,0.0,WeatherDisplay:10.37,2014-02-10 07:37:00,
2014-02-10 02:42:00,16.8,13.3,29.88,SW,221,0.0,0.0,86,0.00,CLR,,0.00,0.0,WeatherDisplay:10.37,2014-02-10 07:42:00,
2014-02-10 02:47:00,16.6,13.1,29.88,SW,221,0.0,0.0,86,0.00,CLR,,0.00,0.0,WeatherDisplay:10.37,2014-02-10 07:47:00,
2014-02-10 02:52:00,16.4,12.9,29.88,SW,221,0.0,0.0,86,0.00,CLR,,0.00,0.0,WeatherDisplay:10.37,2014-02-10 07:52:00,
2014-02-10 02:57:00,16.2,12.7,29.88,West,277,0.0,0.0,86,0.00,CLR,,0.00,0.0,WeatherDisplay:10.37,2014-02-10 07:57:00,
2014-02-10 03:02:00,16.1,12.9,29.89,West,277,0.0,0.0,87,0.00,CLR,,0.00,0.0,WeatherDisplay:10.37,2014-02-10 08:02:00,
2014-02-10 03:07:00,16.0,12.8,29.88,West,268,0.0,0.0,87,0.00,CLR,,0.00,0.0,WeatherDisplay:10.37,2014-02-10 08:07:00,
2014-02-10 03:12:00,15.9,12.7,29.89,West,268,0.0,0.0,87,0.00,CLR,,0.00,0.0,WeatherDisplay:10.37,2014-02-10 08:12:00,
2014-02-10 03:17:00,15.8,12.6,29.88,West,270,0.0,0.0,87,0.00,CLR,,0.00,0.0,WeatherDisplay:10.37,2014-02-10 08:17:00,
2014-02-10 03:22:00,15.7,12.5,29.88,WNW,288,0.1,1.1,87,0.00,CLR,,0.00,0.0,WeatherDisplay:10.37,2014-02-10 08:22:00,
2014-02-10 03:27:00,15.5,12.6,29.88,WSW,244,0.0,0.0,88,0.00,CLR,,0.00,0.0,WeatherDisplay:10.37,2014-02-10 08:27:00,
2014-02-10 03:32:00,15.5,12.6,29.88,WSW,244,0.0,0.0,88,0.00,CLR,,0.00,0.0,WeatherDisplay:10.37,2014-02-10 08:32:00,
2014-02-10 03:37:00,15.4,12.5,29.88,WSW,254,0.0,0.0,88,0.00,CLR,,0.00,0.0,WeatherDisplay:10.37,2014-02-10 08:37:00,
2014-02-10 03:42:00,15.4,12.7,29.88,WSW,255,0.0,0.0,89,0.00,CLR,,0.00,0.0,WeatherDisplay:10.37,2014-02-10 08:42:00,
2014-02-10 03:47:00,15.3,12.6,29.88,WSW,255,0.0,0.0,89,0.00,CLR,,0.00,0.0,WeatherDisplay:10.37,2014-02-10 08:47:00,
2014-02-10 03:52:00,15.3,12.6,29.88,WSW,255,0.0,0.0,89,0.00,CLR,,0.00,0.0,WeatherDisplay:10.37,2014-02-10 08:52:00,
2014-02-10 03:57:00,15.2,12.5,29.88,WSW,255,0.0,0.0,89,0.00,CLR,,0.00,0.0,WeatherDisplay:10.37,2014-02-10 08:57:00,
2014-02-10 04:02:00,15.2,12.5,29.88,WSW,255,0.0,0.0,89,0.00,CLR,,0.00,0.0,WeatherDisplay:10.37,2014-02-10 09:02:00,
2014-02-10 04:07:00,15.2,12.8,29.88,WSW,255,0.0,0.0,90,0.00,CLR,,0.00,0.0,WeatherDisplay:10.37,2014-02-10 09:07:00,
2014-02-10 04:12:00,15.3,12.9,29.88,WSW,255,0.0,0.0,90,0.00,CLR,,0.00,0.0,WeatherDisplay:10.37,2014-02-10 09:12:00,
2014-02-10 04:17:00,15.3,12.9,29.89,West,268,0.0,0.0,90,0.00,CLR,,0.00,0.0,WeatherDisplay:10.37,2014-02-10 09:17:00,
2014-02-10 04:22:00,15.2,12.8,29.89,West,268,0.0,0.0,90,0.00,CLR,,0.00,0.0,WeatherDisplay:10.37,2014-02-10 09:22:00,
2014-02-10 04:27:00,15.2,12.5,29.89,WSW,246,0.0,1.1,89,0.00,CLR,,0.00,0.0,WeatherDisplay:10.37,2014-02-10 09:27:00,
2014-02-10 04:32:00,15.1,12.4,29.90,WSW,246,0.0,0.0,89,0.00,CLR,,0.00,0.0,WeatherDisplay:10.37,2014-02-10 09:32:00,
2014-02-10 04:37:00,15.0,12.3,29.89,WNW,292,0.0,0.0,89,0.00,CLR,,0.00,0.0,WeatherDisplay:10.37,2014-02-10 09:37:00,
2014-02-10 04:42:00,15.0,12.3,29.90,WNW,285,0.0,0.0,89,0.00,CLR,,0.00,0.0,WeatherDisplay:10.37,2014-02-10 09:42:00,
2014-02-10 04:47:00,14.8,12.1,29.90,NNW,338,0.0,0.0,89,0.00,CLR,,0.00,0.0,WeatherDisplay:10.37,2014-02-10 09:47:00,
2014-02-10 04:52:00,14.7,12.0,29.90,West,274,0.0,0.0,89,0.00,CLR,,0.00,0.0,WeatherDisplay:10.37,2014-02-10 09:52:00,
2014-02-10 04:57:00,14.7,12.3,29.90,WSW,242,0.0,0.0,90,0.00,CLR,,0.00,0.0,WeatherDisplay:10.37,2014-02-10 09:57:00,
2014-02-10 05:02:00,14.7,12.3,29.90,SW,234,0.0,0.0,90,0.00,CLR,,0.00,0.0,WeatherDisplay:10.37,2014-02-10 10:02:00,
2014-02-10 05:07:00,14.7,12.3,29.90,SW,230,0.0,0.0,90,0.00,CLR,,0.00,0.0,WeatherDisplay:10.37,2014-02-10 10:07:00,
2014-02-10 05:12:00,14.6,12.2,29.90,WSW,257,0.0,0.0,90,0.00,CLR,,0.00,0.0,WeatherDisplay:10.37,2014-02-10 10:12:00,
2014-02-10 05:17:00,14.6,12.2,29.91,SW,219,0.2,3.5,90,0.00,CLR,,0.00,0.0,WeatherDisplay:10.37,2014-02-10 10:17:00,
2014-02-10 05:22:00,14.6,12.2,29.91,WNW,300,0.0,0.0,90,0.00,CLR,,0.00,0.0,WeatherDisplay:10.37,2014-02-10 10:22:00,
2014-02-10 05:27:00,14.5,12.1,29.91,WNW,300,0.0,0.0,90,0.00,CLR,,0.00,0.0,WeatherDisplay:10.37,2014-02-10 10:27:00,
2014-02-10 05:32:00,14.6,12.2,29.91,NNW,328,0.0,0.0,90,0.00,CLR,,0.00,0.0,WeatherDisplay:10.37,2014-02-10 10:32:00,
2014-02-10 05:37:00,14.6,12.2,29.91,West,261,0.4,1.1,90,0.00,CLR,,0.00,0.0,WeatherDisplay:10.37,2014-02-10 10:37:00,
2014-02-10 05:42:00,14.6,12.2,29.91,South,175,0.0,0.0,90,0.00,CLR,,0.00,0.0,WeatherDisplay:10.37,2014-02-10 10:42:00,
2014-02-10 05:47:00,14.6,12.2,29.91,NW,325,0.0,0.0,90,0.00,CLR,,0.00,0.0,WeatherDisplay:10.37,2014-02-10 10:47:00,
2014-02-10 05:52:00,14.6,12.2,29.92,WNW,290,0.0,0.0,90,0.00,CLR,,0.00,0.0,WeatherDisplay:10.37,2014-02-10 10:52:00,
2014-02-10 05:57:00,14.7,12.3,29.91,SW,232,0.1,1.1,90,0.00,CLR,,0.00,0.0,WeatherDisplay:10.37,2014-02-10 10:57:00,
2014-02-10 06:02:00,14.8,12.6,29.92,SW,236,0.0,0.0,91,0.00,CLR,,0.00,0.0,WeatherDisplay:10.37,2014-02-10 11:02:00,
2014-02-10 06:07:00,14.9,12.7,29.92,West,275,0.1,3.5,91,0.00,CLR,,0.00,0.0,WeatherDisplay:10.37,2014-02-10 11:07:00,
2014-02-10 06:12:00,15.1,12.9,29.92,West,261,0.1,1.1,91,0.00,CLR,,0.00,0.0,WeatherDisplay:10.37,2014-02-10 11:12:00,
2014-02-10 06:17:00,15.1,12.9,29.92,NW,314,0.5,3.5,91,0.00,OVC,,0.00,0.0,WeatherDisplay:10.37,2014-02-10 11:17:00,
2014-02-10 06:22:00,15.2,13.0,29.92,WNW,297,0.0,1.1,91,0.00,OVC,,0.00,0.0,WeatherDisplay:10.37,2014-02-10 11:22:00,
2014-02-10 06:27:00,15.2,13.0,29.92,WNW,290,0.0,1.1,91,0.00,OVC,,0.00,0.0,WeatherDisplay:10.37,2014-02-10 11:27:00,
2014-02-10 06:32:00,15.2,13.0,29.92,WNW,290,0.2,1.1,91,0.00,OVC,,0.00,0.0,WeatherDisplay:10.37,2014-02-10 11:32:00,
2014-02-10 06:37:00,15.2,13.0,29.92,WNW,285,0.0,1.1,91,0.00,OVC,,0.00,0.0,WeatherDisplay:10.37,2014-02-10 11:37:00,
2014-02-10 06:42:00,15.2,12.8,29.92,WNW,284,0.0,0.0,90,0.00,OVC,,0.00,0.0,WeatherDisplay:10.37,2014-02-10 11:42:00,
2014-02-10 06:48:00,15.2,12.8,29.93,WNW,284,0.0,0.0,90,0.00,OVC,,0.00,0.0,WeatherDisplay:10.37,2014-02-10 11:48:00,
2014-02-10 06:53:00,15.1,12.7,29.93,West,264,0.0,0.0,90,0.00,OVC,,0.00,0.0,WeatherDisplay:10.37,2014-02-10 11:53:00,
2014-02-10 06:58:00,15.1,12.7,29.94,WNW,300,0.0,1.1,90,0.00,OVC,,0.00,0.0,WeatherDisplay:10.37,2014-02-10 11:58:00,
2014-02-10 07:03:00,15.1,12.7,29.94,WNW,288,0.0,3.5,90,0.00,OVC,,0.00,0.0,WeatherDisplay:10.37,2014-02-10 12:03:00,
2014-02-10 07:08:00,15.1,12.7,29.94,NW,316,0.0,1.1,90,0.00,BKN,,0.00,5.0,WeatherDisplay:10.37,2014-02-10 12:08:00,
2014-02-10 07:13:00,15.1,12.7,29.95,WNW,297,0.1,1.1,90,0.00,BKN,,0.00,5.0,WeatherDisplay:10.37,2014-02-10 12:13:00,
2014-02-10 07:18:00,15.1,12.7,29.96,WSW,240,0.0,0.0,90,0.00,BKN,,0.00,7.0,WeatherDisplay:10.37,2014-02-10 12:18:00,
2014-02-10 07:23:00,15.1,12.7,29.96,WSW,240,0.0,0.0,90,0.00,BKN,,0.00,7.0,WeatherDisplay:10.37,2014-02-10 12:23:00,
2014-02-10 07:28:00,15.2,12.8,29.96,WSW,241,0.0,0.0,90,0.00,BKN,,0.00,9.0,WeatherDisplay:10.37,2014-02-10 12:28:00,
2014-02-10 07:33:00,15.2,12.8,29.96,WSW,241,0.0,0.0,90,0.00,BKN,,0.00,11.0,WeatherDisplay:10.37,2014-02-10 12:33:00,
2014-02-10 07:38:00,15.3,12.9,29.96,WNW,285,0.0,3.5,90,0.00,BKN,,0.00,11.0,WeatherDisplay:10.37,2014-02-10 12:38:00,
2014-02-10 07:43:00,15.5,13.1,29.96,WSW,244,1.0,3.5,90,0.00,BKN,,0.00,12.0,WeatherDisplay:10.37,2014-02-10 12:43:00,
2014-02-10 07:48:00,15.6,13.2,29.97,WNW,295,0.0,0.0,90,0.00,BKN,,0.00,12.0,WeatherDisplay:10.37,2014-02-10 12:48:00,
2014-02-10 07:53:00,15.9,13.7,29.97,WSW,251,0.0,0.0,91,0.00,BKN,,0.00,14.0,WeatherDisplay:10.37,2014-02-10 12:53:00,
2014-02-10 07:58:00,16.1,13.9,29.98,SSE,157,0.0,1.1,91,0.00,BKN,,0.00,14.0,WeatherDisplay:10.37,2014-02-10 12:58:00,
2014-02-10 08:03:00,16.5,14.3,29.98,WNW,286,1.8,5.0,91,0.00,BKN,,0.00,16.0,WeatherDisplay:10.37,2014-02-10 13:03:00,
2014-02-10 08:08:00,16.7,14.5,29.97,WNW,288,0.2,3.0,91,0.00,BKN,,0.00,18.0,WeatherDisplay:10.37,2014-02-10 13:08:00,
2014-02-10 08:13:00,17.3,14.9,29.98,West,267,1.0,3.5,90,0.00,BKN,,0.00,19.0,WeatherDisplay:10.37,2014-02-10 13:13:00,
2014-02-10 08:18:00,17.8,15.4,29.98,WNW,288,0.0,1.1,90,0.00,BKN,,0.00,19.0,WeatherDisplay:10.37,2014-02-10 13:18:00,
2014-02-10 08:23:00,18.2,15.5,29.98,SW,217,0.1,1.1,89,0.00,BKN,,0.00,21.0,WeatherDisplay:10.37,2014-02-10 13:23:00,
2014-02-10 08:28:00,18.8,15.8,29.98,WSW,258,1.7,6.9,88,0.00,BKN,,0.00,23.0,WeatherDisplay:10.37,2014-02-10 13:28:00,
2014-02-10 08:33:00,19.3,16.1,29.98,WNW,293,2.0,5.8,87,0.00,BKN,,0.00,23.0,WeatherDisplay:10.37,2014-02-10 13:33:00,
2014-02-10 08:38:00,19.9,16.1,29.98,NNW,340,2.3,5.8,85,0.00,BKN,,0.00,25.0,WeatherDisplay:10.37,2014-02-10 13:38:00,
2014-02-10 08:43:00,20.4,15.8,29.98,NW,312,3.0,6.0,82,0.00,BKN,,0.00,26.0,WeatherDisplay:10.37,2014-02-10 13:43:00,
2014-02-10 08:48:00,20.9,15.4,29.98,NNW,327,3.9,5.8,79,0.00,BKN,,0.00,26.0,WeatherDisplay:10.37,2014-02-10 13:48:00,
2014-02-10 08:53:00,21.3,15.5,29.99,West,263,1.8,3.0,78,0.00,BKN,,0.00,28.0,WeatherDisplay:10.37,2014-02-10 13:53:00,
2014-02-10 08:58:00,21.8,15.4,29.99,WSW,243,0.6,3.5,76,0.00,BKN,,0.00,30.0,WeatherDisplay:10.37,2014-02-10 13:58:00,
2014-02-10 09:03:00,22.1,15.1,29.99,WNW,296,2.2,4.6,74,0.00,BKN,,0.00,32.0,WeatherDisplay:10.37,2014-02-10 14:03:00,
2014-02-10 09:08:00,22.4,15.1,29.99,WNW,290,4.7,5.8,73,0.00,BKN,,0.00,32.0,WeatherDisplay:10.37,2014-02-10 14:08:00,
2014-02-10 09:13:00,22.7,14.7,29.99,WNW,294,2.3,6.9,71,0.00,BKN,,0.00,30.0,WeatherDisplay:10.37,2014-02-10 14:13:00,
2014-02-10 09:18:00,23.0,14.7,30.00,NNW,327,3.1,4.6,70,0.00,BKN,,0.00,33.0,WeatherDisplay:10.37,2014-02-10 14:18:00,
2014-02-10 09:23:00,23.2,14.5,30.00,WNW,294,1.3,10.4,69,0.00,BKN,,0.00,40.0,WeatherDisplay:10.37,2014-02-10 14:23:00,
2014-02-10 09:28:00,23.5,14.1,30.00,NW,319,2.8,8.1,67,0.00,BKN,,0.00,46.0,WeatherDisplay:10.37,2014-02-10 14:28:00,
2014-02-10 09:33:00,23.8,14.4,30.01,North,360,3.3,4.0,67,0.00,BKN,,0.00,44.0,WeatherDisplay:10.37,2014-02-10 14:33:00,
2014-02-10 09:38:00,24.2,14.5,30.01,NW,321,2.7,6.9,66,0.00,BKN,,0.00,53.0,WeatherDisplay:10.37,2014-02-10 14:38:00,
2014-02-10 09:43:00,24.5,14.1,30.01,NW,325,0.0,2.3,64,0.00,BKN,,0.00,69.0,WeatherDisplay:10.37,2014-02-10 14:43:00,
2014-02-10 09:48:00,24.9,14.1,30.01,WNW,282,1.9,3.5,63,0.00,BKN,,0.00,58.0,WeatherDisplay:10.37,2014-02-10 14:48:00,
2014-02-10 09:53:00,25.2,13.2,30.01,NW,311,3.1,9.2,60,0.00,BKN,,0.00,69.0,WeatherDisplay:10.37,2014-02-10 14:53:00,
2014-02-10 09:58:00,25.7,13.3,30.02,WSW,246,2.6,4.6,59,0.00,BKN,,0.00,69.0,WeatherDisplay:10.37,2014-02-10 14:58:00,
2014-02-10 10:03:00,26.1,12.9,30.02,NNW,333,4.0,6.9,57,0.00,BKN,,0.00,23.0,WeatherDisplay:10.37,2014-02-10 15:03:00,
2014-02-10 10:08:00,26.4,13.2,30.02,NW,309,2.0,10.4,57,0.00,BKN,,0.00,88.0,WeatherDisplay:10.37,2014-02-10 15:08:00,
2014-02-10 10:13:00,26.8,11.9,30.02,West,265,2.1,11.5,53,0.00,BKN,,0.00,109.0,WeatherDisplay:10.37,2014-02-10 15:13:00,
2014-02-10 10:18:00,26.9,11.6,30.03,WNW,298,2.1,6.9,52,0.00,BKN,,0.00,118.0,WeatherDisplay:10.37,2014-02-10 15:18:00,
2014-02-10 10:23:00,26.7,10.5,30.03,NW,317,6.1,10.4,50,0.00,BKN,,0.00,127.0,WeatherDisplay:10.37,2014-02-10 15:23:00,
2014-02-10 10:28:00,26.5,10.8,30.03,NW,319,0.5,3.5,51,0.00,BKN,,0.00,137.0,WeatherDisplay:10.37,2014-02-10 15:28:00,
2014-02-10 10:33:00,27.0,11.7,30.03,NNW,330,3.8,4.6,52,0.00,BKN,,0.00,39.0,WeatherDisplay:10.37,2014-02-10 15:33:00,
2014-02-10 10:38:00,26.9,11.2,30.03,WSW,246,0.1,5.8,51,0.00,BKN,,0.00,151.0,WeatherDisplay:10.37,2014-02-10 15:38:00,
2014-02-10 10:43:00,27.1,11.8,30.03,West,279,3.0,8.1,52,0.00,BKN,,0.00,141.0,WeatherDisplay:10.37,2014-02-10 15:43:00,
2014-02-10 10:48:00,27.0,11.3,30.03,NNE,17,4.8,10.4,51,0.00,BKN,,0.00,160.0,WeatherDisplay:10.37,2014-02-10 15:48:00,
2014-02-10 10:53:00,27.1,10.4,30.03,NW,309,5.7,6.9,49,0.00,BKN,,0.00,163.0,WeatherDisplay:10.37,2014-02-10 15:53:00,
2014-02-10 10:58:00,26.8,10.2,30.03,North,5,4.9,9.2,49,0.00,BKN,,0.00,163.0,WeatherDisplay:10.37,2014-02-10 15:58:00,
2014-02-10 11:03:00,27.0,10.4,30.03,WNW,284,6.0,11.0,49,0.00,BKN,,0.00,169.0,WeatherDisplay:10.37,2014-02-10 16:03:00,
2014-02-10 11:08:00,27.4,11.2,30.03,WNW,303,4.8,13.0,50,0.00,BKN,,0.00,134.0,WeatherDisplay:10.37,2014-02-10 16:08:00,
2014-02-10 11:13:00,27.7,10.5,30.02,NNE,15,1.9,4.0,48,0.00,BKN,,0.00,118.0,WeatherDisplay:10.37,2014-02-10 16:13:00,
2014-02-10 11:18:00,27.8,11.1,30.03,NNW,346,1.5,4.6,49,0.00,BKN,,0.00,169.0,WeatherDisplay:10.37,2014-02-10 16:18:00,
2014-02-10 11:23:00,27.6,10.0,30.02,NW,322,4.4,8.1,47,0.00,BKN,,0.00,171.0,WeatherDisplay:10.37,2014-02-10 16:23:00,
2014-02-10 11:28:00,27.7,10.5,30.02,North,360,7.7,13.8,48,0.00,BKN,,0.00,97.0,WeatherDisplay:10.37,2014-02-10 16:28:00,
2014-02-10 11:33:00,27.6,10.0,30.01,West,269,0.1,10.4,47,0.00,BKN,,0.00,209.0,WeatherDisplay:10.37,2014-02-10 16:33:00,
2014-02-10 11:38:00,27.9,10.2,30.01,West,273,4.1,6.9,47,0.00,BKN,,0.00,216.0,WeatherDisplay:10.37,2014-02-10 16:38:00,
2014-02-10 11:43:00,28.3,12.0,30.01,West,274,2.1,5.8,50,0.00,BKN,,0.00,287.0,WeatherDisplay:10.37,2014-02-10 16:43:00,
2014-02-10 11:48:00,28.7,10.0,30.01,NNW,331,3.9,6.9,45,0.00,FEW,,0.00,526.0,WeatherDisplay:10.37,2014-02-10 16:48:00,
2014-02-10 11:53:00,28.1,9.5,30.01,NNW,341,3.3,6.9,45,0.00,SCT,,0.00,156.0,WeatherDisplay:10.37,2014-02-10 16:53:00,
2014-02-10 11:58:00,27.8,10.2,30.01,WNW,294,5.6,5.6,47,0.00,SCT,,0.00,629.0,WeatherDisplay:10.37,2014-02-10 16:58:00,
2014-02-10 12:03:00,27.9,10.7,30.01,WNW,292,2.0,8.1,48,0.00,CLR,,0.00,596.0,WeatherDisplay:10.37,2014-02-10 17:03:00,
2014-02-10 12:08:00,27.9,10.7,30.00,NW,309,2.7,5.8,48,0.00,SCT,,0.00,84.0,WeatherDisplay:10.37,2014-02-10 17:08:00,
2014-02-10 12:13:00,27.1,10.9,30.00,SW,223,0.7,3.5,50,0.00,BKN,,0.00,74.0,WeatherDisplay:10.37,2014-02-10 17:13:00,
2014-02-10 12:18:00,26.5,9.9,30.00,NW,314,3.2,16.1,49,0.00,BKN,,0.00,573.0,WeatherDisplay:10.37,2014-02-10 17:18:00,
2014-02-10 12:23:00,26.9,10.7,30.00,West,269,3.4,8.1,50,0.00,FEW,,0.00,120.0,WeatherDisplay:10.37,2014-02-10 17:23:00,
2014-02-10 12:28:00,26.6,10.9,30.00,WSW,238,2.2,5.0,51,0.00,BKN,,0.00,90.0,WeatherDisplay:10.37,2014-02-10 17:28:00,
2014-02-10 12:33:00,26.4,10.7,30.00,SSW,213,1.9,8.1,51,0.00,SCT,,0.00,622.0,WeatherDisplay:10.37,2014-02-10 17:33:00,
2014-02-10 12:38:00,27.7,11.9,30.00,SW,236,5.3,13.8,51,0.00,CLR,,0.00,144.0,WeatherDisplay:10.37,2014-02-10 17:38:00,
2014-02-10 12:43:00,27.2,11.9,30.00,NNW,332,1.6,8.1,52,0.00,BKN,,0.00,552.0,WeatherDisplay:10.37,2014-02-10 17:43:00,
2014-02-10 12:48:00,27.8,12.0,30.00,West,263,2.5,10.4,51,0.00,CLR,,0.00,575.0,WeatherDisplay:10.37,2014-02-10 17:48:00,
2014-02-10 12:53:00,27.6,10.9,30.00,WNW,300,2.2,5.0,49,0.00,CLR,,0.00,563.0,WeatherDisplay:10.37,2014-02-10 17:53:00,
2014-02-10 12:58:00,28.2,11.5,30.00,NW,313,3.9,8.0,49,0.00,CLR,,0.00,563.0,WeatherDisplay:10.37,2014-02-10 17:58:00,
2014-02-10 13:03:00,28.4,11.6,30.00,NW,318,5.1,11.5,49,0.00,CLR,,0.00,561.0,WeatherDisplay:10.37,2014-02-10 18:03:00,
2014-02-10 13:08:00,28.4,11.2,30.00,West,280,2.3,6.9,48,0.00,CLR,,0.00,566.0,WeatherDisplay:10.37,2014-02-10 18:08:00,
2014-02-10 13:13:00,28.5,10.3,29.99,West,277,2.3,6.0,46,0.00,CLR,,0.00,552.0,WeatherDisplay:10.37,2014-02-10 18:13:00,
2014-02-10 13:18:00,27.6,10.0,29.99,NW,305,1.6,4.6,47,0.00,CLR,,0.00,564.0,WeatherDisplay:10.37,2014-02-10 18:18:00,
2014-02-10 13:23:00,28.3,10.1,29.99,West,281,2.4,5.8,46,0.00,CLR,,0.00,585.0,WeatherDisplay:10.37,2014-02-10 18:23:00,
2014-02-10 13:28:00,28.5,12.6,29.99,North,355,3.4,4.0,51,0.00,CLR,,0.00,464.0,WeatherDisplay:10.37,2014-02-10 18:28:00,
2014-02-10 13:33:00,28.5,10.3,30.00,NNW,327,6.1,9.2,46,0.00,CLR,,0.00,483.0,WeatherDisplay:10.37,2014-02-10 18:33:00,
2014-02-10 13:38:00,28.3,10.1,30.00,NW,313,0.8,6.9,46,0.00,CLR,,0.00,392.0,WeatherDisplay:10.37,2014-02-10 18:38:00,
2014-02-10 13:43:00,28.5,12.2,30.00,WNW,284,0.3,4.6,50,0.00,CLR,,0.00,454.0,WeatherDisplay:10.37,2014-02-10 18:43:00,
2014-02-10 13:48:00,28.3,10.6,30.00,NNE,15,2.5,5.8,47,0.00,CLR,,0.00,381.0,WeatherDisplay:10.37,2014-02-10 18:48:00,
2014-02-10 13:53:00,28.2,10.5,30.00,WNW,292,3.4,6.9,47,0.00,FEW,,0.00,285.0,WeatherDisplay:10.37,2014-02-10 18:53:00,
2014-02-10 13:58:00,27.7,9.6,30.00,NW,323,5.3,8.0,46,0.00,BKN,,0.00,276.0,WeatherDisplay:10.37,2014-02-10 18:58:00,
2014-02-10 14:03:00,27.9,11.2,30.00,WNW,288,2.0,6.0,49,0.00,SCT,,0.00,454.0,WeatherDisplay:10.37,2014-02-10 19:03:00,
2014-02-10 14:08:00,28.1,11.4,30.01,NW,310,2.1,2.3,49,0.00,CLR,,0.00,339.0,WeatherDisplay:10.37,2014-02-10 19:08:00,
2014-02-10 14:13:00,28.1,9.9,30.01,East,101,1.0,3.5,46,0.00,SCT,,0.00,206.0,WeatherDisplay:10.37,2014-02-10 19:13:00,
2014-02-10 14:18:00,28.7,10.5,30.01,WNW,296,3.8,8.1,46,0.00,SCT,,0.00,315.0,WeatherDisplay:10.37,2014-02-10 19:18:00,
2014-02-10 14:23:00,28.5,10.3,30.01,West,262,3.5,6.9,46,0.00,CLR,,0.00,332.0,WeatherDisplay:10.37,2014-02-10 19:23:00,
2014-02-10 14:28:00,28.8,11.1,30.01,WNW,292,3.1,5.8,47,0.00,CLR,,0.00,462.0,WeatherDisplay:10.37,2014-02-10 19:28:00,
2014-02-10 14:33:00,28.3,9.6,30.01,North,351,4.4,6.9,45,0.00,CLR,,0.00,376.0,WeatherDisplay:10.37,2014-02-10 19:33:00,
2014-02-10 14:38:00,27.8,9.7,30.01,NW,304,1.9,4.0,46,0.00,CLR,,0.00,234.0,WeatherDisplay:10.37,2014-02-10 19:38:00,
2014-02-10 14:43:00,28.1,10.4,30.01,WNW,292,2.5,6.0,47,0.00,SCT,,0.00,163.0,WeatherDisplay:10.37,2014-02-10 19:43:00,
2014-02-10 14:48:00,27.6,10.0,30.01,West,268,4.3,9.2,47,0.00,BKN,,0.00,134.0,WeatherDisplay:10.37,2014-02-10 19:48:00,
2014-02-10 14:53:00,27.5,9.9,30.01,West,279,3.6,5.8,47,0.00,BKN,,0.00,178.0,WeatherDisplay:10.37,2014-02-10 19:53:00,
2014-02-10 14:58:00,27.6,10.0,30.01,NNW,348,3.2,5.0,47,0.00,SCT,,0.00,125.0,WeatherDisplay:10.37,2014-02-10 19:58:00,
2014-02-10 15:03:00,27.6,9.5,30.01,NNW,333,4.6,8.1,46,0.00,BKN,,0.00,90.0,WeatherDisplay:10.37,2014-02-10 20:03:00,
2014-02-10 15:08:00,27.5,9.4,30.01,West,263,3.3,8.1,46,0.00,BKN,,0.00,97.0,WeatherDisplay:10.37,2014-02-10 20:08:00,
2014-02-10 15:13:00,27.3,9.7,30.01,NNW,337,0.0,3.5,47,0.00,BKN,,0.00,77.0,WeatherDisplay:10.37,2014-02-10 20:13:00,
2014-02-10 15:18:00,27.3,9.2,30.02,North,355,4.5,10.4,46,0.00,BKN,,0.00,51.0,WeatherDisplay:10.37,2014-02-10 20:18:00,
2014-02-10 15:23:00,27.2,8.6,30.02,NW,315,1.3,4.6,45,0.00,BKN,,0.00,84.0,WeatherDisplay:10.37,2014-02-10 20:23:00,
2014-02-10 15:28:00,27.1,8.5,30.02,WNW,302,0.1,1.1,45,0.00,BKN,,0.00,91.0,WeatherDisplay:10.37,2014-02-10 20:28:00,
2014-02-10 15:33:00,27.0,8.5,30.02,WNW,288,1.8,6.9,45,0.00,BKN,,0.00,53.0,WeatherDisplay:10.37,2014-02-10 20:33:00,
2014-02-10 15:38:00,26.9,9.3,30.02,WNW,284,1.7,5.8,47,0.00,BKN,,0.00,35.0,WeatherDisplay:10.37,2014-02-10 20:38:00,
2014-02-10 15:43:00,26.8,8.3,30.02,West,261,3.0,10.0,45,0.00,BKN,,0.00,49.0,WeatherDisplay:10.37,2014-02-10 20:43:00,
2014-02-10 15:48:00,26.6,8.6,30.03,NW,316,2.6,4.6,46,0.00,BKN,,0.00,44.0,WeatherDisplay:10.37,2014-02-10 20:48:00,
2014-02-10 15:53:00,26.4,8.9,30.03,WNW,285,1.4,4.6,47,0.00,BKN,,0.00,40.0,WeatherDisplay:10.37,2014-02-10 20:53:00,
2014-02-10 15:58:00,26.3,8.8,30.03,NW,305,3.8,5.8,47,0.00,BKN,,0.00,42.0,WeatherDisplay:10.37,2014-02-10 20:58:00,
2014-02-10 16:03:00,26.1,8.6,30.03,NW,317,1.0,3.5,47,0.00,BKN,,0.00,35.0,WeatherDisplay:10.37,2014-02-10 21:03:00,
2014-02-10 16:08:00,26.0,8.5,30.03,WNW,298,0.3,2.3,47,0.00,BKN,,0.00,63.0,WeatherDisplay:10.37,2014-02-10 21:08:00,
2014-02-10 16:13:00,25.9,8.9,30.03,ESE,103,0.6,3.5,48,0.00,SCT,,0.00,67.0,WeatherDisplay:10.37,2014-02-10 21:13:00,
2014-02-10 16:18:00,25.9,8.4,30.03,NW,315,0.1,1.1,47,0.00,BKN,,0.00,42.0,WeatherDisplay:10.37,2014-02-10 21:18:00,
2014-02-10 16:23:00,25.8,8.3,30.04,WNW,288,3.4,4.6,47,0.00,BKN,,0.00,42.0,WeatherDisplay:10.37,2014-02-10 21:23:00,
2014-02-10 16:28:00,25.8,8.3,30.04,NNE,26,4.5,8.1,47,0.00,BKN,,0.00,21.0,WeatherDisplay:10.37,2014-02-10 21:28:00,
2014-02-10 16:33:00,25.7,8.7,30.04,WSW,249,0.1,1.1,48,0.00,BKN,,0.00,19.0,WeatherDisplay:10.37,2014-02-10 21:33:00,
2014-02-10 16:38:00,25.5,8.0,30.04,NNW,331,3.4,5.8,47,0.00,BKN,,0.00,16.0,WeatherDisplay:10.37,2014-02-10 21:38:00,
2014-02-10 16:43:00,25.3,8.3,30.05,WNW,287,0.0,4.6,48,0.00,BKN,,0.00,14.0,WeatherDisplay:10.37,2014-02-10 21:43:00,
2014-02-10 16:48:00,25.1,7.7,30.05,WNW,284,1.2,4.0,47,0.00,BKN,,0.00,12.0,WeatherDisplay:10.37,2014-02-10 21:48:00,
2014-02-10 16:53:00,24.9,8.0,30.06,NW,316,0.1,1.1,48,0.00,BKN,,0.00,9.0,WeatherDisplay:10.37,2014-02-10 21:53:00,
2014-02-10 16:58:00,24.6,8.1,30.06,NW,307,1.0,5.0,49,0.00,BKN,,0.00,7.0,WeatherDisplay:10.37,2014-02-10 21:58:00,
2014-02-10 17:03:00,24.4,7.5,30.07,NW,306,3.0,6.9,48,0.00,BKN,,0.00,5.0,WeatherDisplay:10.37,2014-02-10 22:03:00,
2014-02-10 17:08:00,24.2,7.8,30.07,WNW,290,0.3,6.0,49,0.00,BKN,,0.00,0.0,WeatherDisplay:10.37,2014-02-10 22:08:00,
2014-02-10 17:13:00,24.0,8.0,30.07,WNW,303,1.1,2.3,50,0.00,OVC,,0.00,0.0,WeatherDisplay:10.37,2014-02-10 22:13:00,
2014-02-10 17:18:00,23.7,7.7,30.07,NW,305,0.4,3.5,50,0.00,OVC,,0.00,0.0,WeatherDisplay:10.37,2014-02-10 22:18:00,
2014-02-10 17:23:00,23.6,8.1,30.08,NW,309,0.5,10.4,51,0.00,OVC,,0.00,0.0,WeatherDisplay:10.37,2014-02-10 22:23:00,
2014-02-10 17:28:00,23.3,7.8,30.08,WNW,285,0.2,2.0,51,0.00,OVC,,0.00,0.0,WeatherDisplay:10.37,2014-02-10 22:28:00,
2014-02-10 17:33:00,23.2,8.2,30.09,NW,311,0.0,0.0,52,0.00,OVC,,0.00,0.0,WeatherDisplay:10.37,2014-02-10 22:33:00,
2014-02-10 17:38:00,22.9,8.3,30.09,West,276,1.3,8.1,53,0.00,OVC,,0.00,0.0,WeatherDisplay:10.37,2014-02-10 22:38:00,
2014-02-10 17:44:00,22.6,7.6,30.09,NNW,345,0.0,1.1,52,0.00,CLR,,0.00,0.0,WeatherDisplay:10.37,2014-02-10 22:44:00,
2014-02-10 17:49:00,22.4,8.2,30.09,West,265,0.0,0.0,54,0.00,CLR,,0.00,0.0,WeatherDisplay:10.37,2014-02-10 22:49:00,
2014-02-10 17:54:00,22.1,8.0,30.10,NW,324,1.5,3.0,54,0.00,CLR,,0.00,0.0,WeatherDisplay:10.37,2014-02-10 22:54:00,
2014-02-10 17:59:00,21.9,8.2,30.10,NW,323,0.0,2.3,55,0.00,CLR,,0.00,0.0,WeatherDisplay:10.37,2014-02-10 22:59:00,
2014-02-10 18:04:00,21.6,7.9,30.10,NW,317,0.0,3.5,55,0.00,CLR,,0.00,0.0,WeatherDisplay:10.37,2014-02-10 23:04:00,
2014-02-10 18:09:00,21.3,8.4,30.10,NNW,343,0.0,0.0,57,0.00,CLR,,0.00,0.0,WeatherDisplay:10.37,2014-02-10 23:09:00,
2014-02-10 18:14:00,20.9,8.4,30.10,West,271,0.4,2.3,58,0.00,CLR,,0.00,0.0,WeatherDisplay:10.37,2014-02-10 23:14:00,
2014-02-10 18:19:00,20.7,8.2,30.10,WNW,290,0.1,0.0,58,0.00,CLR,,0.00,0.0,WeatherDisplay:10.37,2014-02-10 23:19:00,
2014-02-10 18:24:00,20.5,8.0,30.11,WNW,290,0.0,0.0,58,0.00,CLR,,0.00,0.0,WeatherDisplay:10.37,2014-02-10 23:24:00,
2014-02-10 18:29:00,20.3,8.2,30.11,West,278,0.0,0.0,59,0.00,CLR,,0.00,0.0,WeatherDisplay:10.37,2014-02-10 23:29:00,
2014-02-10 18:34:00,20.1,8.1,30.11,West,278,0.0,0.0,59,0.00,CLR,,0.00,0.0,WeatherDisplay:10.37,2014-02-10 23:34:00,
2014-02-10 18:39:00,19.8,8.1,30.11,WNW,291,0.2,1.1,60,0.00,CLR,,0.00,0.0,WeatherDisplay:10.37,2014-02-10 23:39:00,
2014-02-10 18:44:00,19.6,8.0,30.11,WNW,292,0.1,1.1,60,0.00,CLR,,0.00,0.0,WeatherDisplay:10.37,2014-02-10 23:44:00,
2014-02-10 18:49:00,19.5,7.9,30.12,WNW,292,0.0,0.0,60,0.00,CLR,,0.00,0.0,WeatherDisplay:10.37,2014-02-10 23:49:00,
2014-02-10 18:54:00,19.3,7.7,30.12,WNW,292,0.0,0.0,60,0.00,CLR,,0.00,0.0,WeatherDisplay:10.37,2014-02-10 23:54:00,
2014-02-10 18:59:00,19.2,7.9,30.12,WNW,292,0.0,0.0,61,0.00,CLR,,0.00,0.0,WeatherDisplay:10.37,2014-02-10 23:59:00,
2014-02-10 19:04:00,18.9,7.7,30.12,WNW,292,0.0,0.0,61,0.00,CLR,,0.00,0.0,WeatherDisplay:10.37,2014-02-11 00:04:00,
2014-02-10 19:09:00,18.6,7.7,30.12,WNW,292,0.0,0.0,62,0.00,CLR,,0.00,0.0,WeatherDisplay:10.37,2014-02-11 00:09:00,
2014-02-10 19:14:00,18.4,7.5,30.12,NNW,345,0.1,1.1,62,0.00,CLR,,0.00,0.0,WeatherDisplay:10.37,2014-02-11 00:14:00,
2014-02-10 19:19:00,18.2,7.7,30.12,NNW,327,0.5,2.3,63,0.00,CLR,,0.00,0.0,WeatherDisplay:10.37,2014-02-11 00:19:00,
2014-02-10 19:24:00,17.9,7.4,30.13,NNW,327,0.0,0.0,63,0.00,CLR,,0.00,0.0,WeatherDisplay:10.37,2014-02-11 00:24:00,
2014-02-10 19:29:00,17.7,7.6,30.13,NNW,327,0.0,0.0,64,0.00,CLR,,0.00,0.0,WeatherDisplay:10.37,2014-02-11 00:29:00,
2014-02-10 19:34:00,17.4,7.6,30.13,WNW,286,0.3,2.3,65,0.00,CLR,,0.00,0.0,WeatherDisplay:10.37,2014-02-11 00:34:00,
2014-02-10 19:39:00,17.2,7.4,30.14,WNW,286,0.0,0.0,65,0.00,CLR,,0.00,0.0,WeatherDisplay:10.37,2014-02-11 00:39:00,
2014-02-10 19:44:00,17.0,7.3,30.14,WNW,286,0.0,0.0,65,0.00,CLR,,0.00,0.0,WeatherDisplay:10.37,2014-02-11 00:44:00,
2014-02-10 19:49:00,16.8,7.1,30.14,West,281,0.0,0.0,65,0.00,CLR,,0.00,0.0,WeatherDisplay:10.37,2014-02-11 00:49:00,
2014-02-10 19:54:00,16.5,7.1,30.14,West,281,0.0,0.0,66,0.00,CLR,,0.00,0.0,WeatherDisplay:10.37,2014-02-11 00:54:00,
2014-02-10 19:59:00,16.4,7.0,30.14,West,281,0.0,0.0,66,0.00,CLR,,0.00,0.0,WeatherDisplay:10.37,2014-02-11 00:59:00,
2014-02-10 20:04:00,16.2,7.2,30.14,West,281,0.0,0.0,67,0.00,CLR,,0.00,0.0,WeatherDisplay:10.37,2014-02-11 01:04:00,
2014-02-10 20:09:00,16.0,7.0,30.14,West,281,0.0,0.0,67,0.00,CLR,,0.00,0.0,WeatherDisplay:10.37,2014-02-11 01:09:00,
2014-02-10 20:14:00,15.9,6.9,30.15,West,281,0.0,0.0,67,0.00,CLR,,0.00,0.0,WeatherDisplay:10.37,2014-02-11 01:14:00,
2014-02-10 20:19:00,15.7,7.0,30.15,West,281,0.0,0.0,68,0.00,CLR,,0.00,0.0,WeatherDisplay:10.37,2014-02-11 01:19:00,
2014-02-10 20:24:00,15.6,6.9,30.15,West,281,0.0,0.0,68,0.00,CLR,,0.00,0.0,WeatherDisplay:10.37,2014-02-11 01:24:00,
2014-02-10 20:29:00,15.4,6.7,30.15,West,281,0.0,0.0,68,0.00,CLR,,0.00,0.0,WeatherDisplay:10.37,2014-02-11 01:29:00,
2014-02-10 20:34:00,15.2,6.5,30.15,West,281,0.0,0.0,68,0.00,CLR,,0.00,0.0,WeatherDisplay:10.37,2014-02-11 01:34:00,
2014-02-10 20:39:00,15.1,6.4,30.15,West,281,0.0,0.0,68,0.00,CLR,,0.00,0.0,WeatherDisplay:10.37,2014-02-11 01:39:00,
2014-02-10 20:44:00,14.9,5.9,30.16,West,281,0.0,0.0,67,0.00,CLR,,0.00,0.0,WeatherDisplay:10.37,2014-02-11 01:44:00,
2014-02-10 20:49:00,14.7,6.0,30.15,West,281,0.0,0.0,68,0.00,CLR,,0.00,0.0,WeatherDisplay:10.37,2014-02-11 01:49:00,
2014-02-10 20:54:00,14.5,6.2,30.15,West,281,0.0,0.0,69,0.00,CLR,,0.00,0.0,WeatherDisplay:10.37,2014-02-11 01:54:00,
2014-02-10 20:59:00,14.3,6.3,30.16,West,281,0.0,0.0,70,0.00,CLR,,0.00,0.0,WeatherDisplay:10.37,2014-02-11 01:59:00,
2014-02-10 21:04:00,14.1,6.1,30.16,West,281,0.0,0.0,70,0.00,CLR,,0.00,0.0,WeatherDisplay:10.37,2014-02-11 02:04:00,
2014-02-10 21:09:00,13.9,5.9,30.16,West,281,0.0,0.0,70,0.00,CLR,,0.00,0.0,WeatherDisplay:10.37,2014-02-11 02:09:00,
2014-02-10 21:14:00,13.8,5.8,30.16,West,280,0.1,1.1,70,0.00,CLR,,0.00,0.0,WeatherDisplay:10.37,2014-02-11 02:14:00,
2014-02-10 21:19:00,13.6,5.6,30.16,West,280,0.0,0.0,70,0.00,CLR,,0.00,0.0,WeatherDisplay:10.37,2014-02-11 02:19:00,
2014-02-10 21:24:00,13.4,5.4,30.16,West,280,0.0,0.0,70,0.00,CLR,,0.00,0.0,WeatherDisplay:10.37,2014-02-11 02:24:00,
2014-02-10 21:29:00,13.2,5.6,30.17,West,280,0.0,0.0,71,0.00,CLR,,0.00,0.0,WeatherDisplay:10.37,2014-02-11 02:29:00,
2014-02-10 21:34:00,13.0,5.7,30.17,West,280,0.0,0.0,72,0.00,CLR,,0.00,0.0,WeatherDisplay:10.37,2014-02-11 02:34:00,
2014-02-10 21:39:00,12.9,5.6,30.16,West,280,0.0,0.0,72,0.00,CLR,,0.00,0.0,WeatherDisplay:10.37,2014-02-11 02:39:00,
2014-02-10 21:44:00,12.7,5.4,30.16,West,280,0.0,0.0,72,0.00,CLR,,0.00,0.0,WeatherDisplay:10.37,2014-02-11 02:44:00,
2014-02-10 21:49:00,12.6,5.6,30.16,West,280,0.0,0.0,73,0.00,CLR,,0.00,0.0,WeatherDisplay:10.37,2014-02-11 02:49:00,
2014-02-10 21:54:00,12.4,5.4,30.16,West,280,0.0,0.0,73,0.00,CLR,,0.00,0.0,WeatherDisplay:10.37,2014-02-11 02:54:00,
2014-02-10 21:59:00,12.3,5.3,30.17,West,280,0.0,1.1,73,0.00,CLR,,0.00,0.0,WeatherDisplay:10.37,2014-02-11 02:59:00,
2014-02-10 22:04:00,12.2,5.2,30.17,West,280,0.0,0.0,73,0.00,CLR,,0.00,0.0,WeatherDisplay:10.37,2014-02-11 03:04:00,
2014-02-10 22:09:00,12.1,5.1,30.17,West,280,0.0,0.0,73,0.00,CLR,,0.00,0.0,WeatherDisplay:10.37,2014-02-11 03:09:00,
2014-02-10 22:14:00,12.0,5.3,30.17,West,280,0.0,0.0,74,0.00,CLR,,0.00,0.0,WeatherDisplay:10.37,2014-02-11 03:14:00,
2014-02-10 22:19:00,11.9,5.2,30.17,West,280,0.0,0.0,74,0.00,CLR,,0.00,0.0,WeatherDisplay:10.37,2014-02-11 03:19:00,
2014-02-10 22:24:00,11.8,5.1,30.17,West,280,0.1,1.1,74,0.00,CLR,,0.00,0.0,WeatherDisplay:10.37,2014-02-11 03:24:00,
2014-02-10 22:29:00,11.7,5.0,30.18,West,280,0.0,0.0,74,0.00,CLR,,0.00,0.0,WeatherDisplay:10.37,2014-02-11 03:29:00,
2014-02-10 22:34:00,11.5,4.8,30.18,West,280,0.0,0.0,74,0.00,CLR,,0.00,0.0,WeatherDisplay:10.37,2014-02-11 03:34:00,
2014-02-10 22:39:00,11.4,4.7,30.17,West,280,0.0,0.0,74,0.00,CLR,,0.00,0.0,WeatherDisplay:10.37,2014-02-11 03:39:00,
2014-02-10 22:44:00,11.4,5.0,30.17,West,280,0.0,0.0,75,0.00,CLR,,0.00,0.0,WeatherDisplay:10.37,2014-02-11 03:44:00,
2014-02-10 22:49:00,11.3,4.9,30.17,West,280,0.0,0.0,75,0.00,CLR,,0.00,0.0,WeatherDisplay:10.37,2014-02-11 03:49:00,
2014-02-10 22:54:00,11.2,4.8,30.18,West,280,0.0,0.0,75,0.00,CLR,,0.00,0.0,WeatherDisplay:10.37,2014-02-11 03:54:00,
2014-02-10 22:59:00,11.1,4.7,30.18,West,280,0.0,0.0,75,0.00,CLR,,0.00,0.0,WeatherDisplay:10.37,2014-02-11 03:59:00,
2014-02-10 23:04:00,11.1,4.7,30.18,West,269,0.0,1.1,75,0.00,CLR,,0.00,0.0,WeatherDisplay:10.37,2014-02-11 04:04:00,
2014-02-10 23:09:00,11.0,4.6,30.18,West,269,0.0,0.0,75,0.00,CLR,,0.00,0.0,WeatherDisplay:10.37,2014-02-11 04:09:00,
2014-02-10 23:14:00,10.9,4.5,30.18,West,269,0.0,0.0,75,0.00,CLR,,0.00,0.0,WeatherDisplay:10.37,2014-02-11 04:14:00,
2014-02-10 23:19:00,10.8,4.4,30.18,West,270,0.0,0.0,75,0.00,CLR,,0.00,0.0,WeatherDisplay:10.37,2014-02-11 04:19:00,
2014-02-10 23:24:00,10.7,4.6,30.18,West,270,0.2,2.3,76,0.00,CLR,,0.00,0.0,WeatherDisplay:10.37,2014-02-11 04:24:00,
2014-02-10 23:29:00,10.6,4.5,30.18,West,268,0.0,0.0,76,0.00,CLR,,0.00,0.0,WeatherDisplay:10.37,2014-02-11 04:29:00,
2014-02-10 23:34:00,10.5,4.4,30.18,West,268,0.0,0.0,76,0.00,CLR,,0.00,0.0,WeatherDisplay:10.37,2014-02-11 04:34:00,
2014-02-10 23:39:00,10.4,4.3,30.19,West,268,0.0,0.0,76,0.00,CLR,,0.00,0.0,WeatherDisplay:10.37,2014-02-11 04:39:00,
2014-02-10 23:44:00,10.3,4.2,30.19,West,268,0.0,0.0,76,0.00,CLR,,0.00,0.0,WeatherDisplay:10.37,2014-02-11 04:44:00,
2014-02-10 23:49:00,10.3,4.5,30.19,West,268,0.0,0.0,77,0.00,CLR,,0.00,0.0,WeatherDisplay:10.37,2014-02-11 04:49:00,
2014-02-10 23:54:00,10.2,4.4,30.19,West,268,0.0,0.0,77,0.00,CLR,,0.00,0.0,WeatherDisplay:10.37,2014-02-11 04:54:00,
2014-02-10 23:59:00,10.2,4.4,30.19,West,268,0.0,0.0,77,0.00,CLR,,0.00,0.0,WeatherDisplay:10.37,2014-02-11 04:59:00,